sensor_id;sensor_type;location;lat;lon;timestamp;temperature;humidity
1091;DHT22;534;48.704;9.122;2023-10-31T05:00:33;11.70;87.10
1091;DHT22;534;48.704;9.122;2023-10-31T05:03:00;11.80;87.00
1091;DHT22;534;48.704;9.122;2023-10-31T05:05:28;11.80;86.70
1091;DHT22;534;48.704;9.122;2023-10-31T05:07:55;11.70;86.30
1091;DHT22;534;48.704;9.122;2023-10-31T05:10:21;11.70;86.10
1091;DHT22;534;48.704;9.122;2023-10-31T05:12:48;11.70;86.30
1091;DHT22;534;48.704;9.122;2023-10-31T05:15:16;11.70;86.30
1091;DHT22;534;48.704;9.122;2023-10-31T05:17:44;11.80;86.10
1091;DHT22;534;48.704;9.122;2023-10-31T05:20:10;11.70;86.10
1091;DHT22;534;48.704;9.122;2023-10-31T05:22:37;11.80;85.90
1091;DHT22;534;48.704;9.122;2023-10-31T05:25:04;11.80;86.00
1091;DHT22;534;48.704;9.122;2023-10-31T05:27:31;11.70;86.40
1091;DHT22;534;48.704;9.122;2023-10-31T05:29:58;11.80;86.50
1091;DHT22;534;48.704;9.122;2023-10-31T05:32:25;11.80;85.90
1091;DHT22;534;48.704;9.122;2023-10-31T05:34:53;11.80;86.10
1091;DHT22;534;48.704;9.122;2023-10-31T05:37:19;11.70;85.70
1091;DHT22;534;48.704;9.122;2023-10-31T05:39:46;11.60;85.80
1091;DHT22;534;48.704;9.122;2023-10-31T05:42:12;11.60;85.60
1091;DHT22;534;48.704;9.122;2023-10-31T05:44:40;11.50;86.10
1091;DHT22;534;48.704;9.122;2023-10-31T05:47:06;11.60;85.90
1091;DHT22;534;48.704;9.122;2023-10-31T05:49:33;11.50;85.60
1091;DHT22;534;48.704;9.122;2023-10-31T05:52:01;11.50;86.00
1091;DHT22;534;48.704;9.122;2023-10-31T05:54:28;11.40;85.50
1091;DHT22;534;48.704;9.122;2023-10-31T05:56:54;11.50;85.90
1091;DHT22;534;48.704;9.122;2023-10-31T05:59:21;11.60;85.50
1091;DHT22;534;48.704;9.122;2023-10-31T06:01:48;11.40;85.40
1091;DHT22;534;48.704;9.122;2023-10-31T06:04:15;11.50;85.50
1091;DHT22;534;48.704;9.122;2023-10-31T06:06:42;11.40;85.10
1091;DHT22;534;48.704;9.122;2023-10-31T06:09:10;11.40;85.10
1091;DHT22;534;48.704;9.122;2023-10-31T06:11:40;11.40;84.60
1091;DHT22;534;48.704;9.122;2023-10-31T06:14:07;11.40;85.40
1091;DHT22;534;48.704;9.122;2023-10-31T06:16:34;11.50;85.10
1091;DHT22;534;48.704;9.122;2023-10-31T06:19:05;11.50;85.10
1091;DHT22;534;48.704;9.122;2023-10-31T06:21:32;11.60;85.10
1091;DHT22;534;48.704;9.122;2023-10-31T06:23:59;11.70;84.70
1091;DHT22;534;48.704;9.122;2023-10-31T06:26:27;11.60;84.00
1091;DHT22;534;48.704;9.122;2023-10-31T06:28:53;11.50;84.30
1091;DHT22;534;48.704;9.122;2023-10-31T06:31:20;11.40;85.00
1091;DHT22;534;48.704;9.122;2023-10-31T06:33:47;11.30;84.30
1091;DHT22;534;48.704;9.122;2023-10-31T06:36:13;11.40;85.10
1091;DHT22;534;48.704;9.122;2023-10-31T06:38:40;11.40;84.60
1091;DHT22;534;48.704;9.122;2023-10-31T06:41:07;11.30;84.50
1091;DHT22;534;48.704;9.122;2023-10-31T06:43:35;11.30;85.20
1091;DHT22;534;48.704;9.122;2023-10-31T06:46:02;11.30;84.70
1091;DHT22;534;48.704;9.122;2023-10-31T06:48:30;11.20;84.40
1091;DHT22;534;48.704;9.122;2023-10-31T06:50:57;11.10;85.50
1091;DHT22;534;48.704;9.122;2023-10-31T06:53:23;11.10;85.70
1091;DHT22;534;48.704;9.122;2023-10-31T06:55:50;11.20;86.50
1091;DHT22;534;48.704;9.122;2023-10-31T06:58:17;11.20;85.60
1091;DHT22;534;48.704;9.122;2023-10-31T07:00:45;11.10;84.60
1091;DHT22;534;48.704;9.122;2023-10-31T07:03:11;11.00;85.60
1091;DHT22;534;48.704;9.122;2023-10-31T07:05:41;11.00;86.00
1091;DHT22;534;48.704;9.122;2023-10-31T07:08:07;11.00;86.20
1091;DHT22;534;48.704;9.122;2023-10-31T07:10:34;11.10;86.60
1091;DHT22;534;48.704;9.122;2023-10-31T07:13:00;11.10;86.30
1091;DHT22;534;48.704;9.122;2023-10-31T07:15:27;11.30;86.00
1091;DHT22;534;48.704;9.122;2023-10-31T07:17:55;11.30;85.20
1091;DHT22;534;48.704;9.122;2023-10-31T07:20:21;11.30;85.20
1091;DHT22;534;48.704;9.122;2023-10-31T07:22:48;11.30;85.60
1091;DHT22;534;48.704;9.122;2023-10-31T07:25:15;11.20;86.40
1091;DHT22;534;48.704;9.122;2023-10-31T07:27:42;11.20;86.60
1091;DHT22;534;48.704;9.122;2023-10-31T07:30:09;11.10;86.30
1091;DHT22;534;48.704;9.122;2023-10-31T07:32:36;11.30;86.50
1091;DHT22;534;48.704;9.122;2023-10-31T07:35:05;11.30;86.10
1091;DHT22;534;48.704;9.122;2023-10-31T07:37:31;11.40;86.30
1091;DHT22;534;48.704;9.122;2023-10-31T07:39:58;11.30;86.10
1091;DHT22;534;48.704;9.122;2023-10-31T07:42:25;11.30;87.10
1091;DHT22;534;48.704;9.122;2023-10-31T07:44:51;11.40;86.60
1091;DHT22;534;48.704;9.122;2023-10-31T07:47:18;11.40;86.50
1091;DHT22;534;48.704;9.122;2023-10-31T07:49:45;11.50;85.90
1091;DHT22;534;48.704;9.122;2023-10-31T07:52:13;11.60;86.70
1091;DHT22;534;48.704;9.122;2023-10-31T07:54:40;11.70;86.40
1091;DHT22;534;48.704;9.122;2023-10-31T07:57:06;11.70;86.30
1091;DHT22;534;48.704;9.122;2023-10-31T07:59:33;11.50;86.50
1091;DHT22;534;48.704;9.122;2023-10-31T08:02:00;11.70;87.20
1091;DHT22;534;48.704;9.122;2023-10-31T08:04:27;11.80;86.30
1091;DHT22;534;48.704;9.122;2023-10-31T08:06:55;11.70;86.00
1091;DHT22;534;48.704;9.122;2023-10-31T08:09:23;11.80;86.20
1091;DHT22;534;48.704;9.122;2023-10-31T08:11:50;12.00;86.70
1091;DHT22;534;48.704;9.122;2023-10-31T08:14:16;12.00;86.40
1091;DHT22;534;48.704;9.122;2023-10-31T08:16:43;12.10;86.10
1091;DHT22;534;48.704;9.122;2023-10-31T08:19:10;11.90;85.60
1091;DHT22;534;48.704;9.122;2023-10-31T08:21:38;11.90;86.30
1091;DHT22;534;48.704;9.122;2023-10-31T08:24:05;11.80;86.10
1091;DHT22;534;48.704;9.122;2023-10-31T08:26:34;11.90;86.10
1091;DHT22;534;48.704;9.122;2023-10-31T08:29:00;11.90;85.80
1091;DHT22;534;48.704;9.122;2023-10-31T08:31:28;11.90;85.90
1091;DHT22;534;48.704;9.122;2023-10-31T08:33:55;11.90;86.00
1091;DHT22;534;48.704;9.122;2023-10-31T08:36:21;11.90;87.10
1091;DHT22;534;48.704;9.122;2023-10-31T08:38:48;12.00;86.20
1091;DHT22;534;48.704;9.122;2023-10-31T08:41:15;11.90;86.60
1091;DHT22;534;48.704;9.122;2023-10-31T08:43:46;12.00;85.80
1091;DHT22;534;48.704;9.122;2023-10-31T08:46:13;12.20;86.80
1091;DHT22;534;48.704;9.122;2023-10-31T08:48:39;12.30;85.00
1091;DHT22;534;48.704;9.122;2023-10-31T08:51:06;12.30;85.60
1091;DHT22;534;48.704;9.122;2023-10-31T08:53:33;12.40;85.50
1091;DHT22;534;48.704;9.122;2023-10-31T08:56:00;12.50;85.80
1091;DHT22;534;48.704;9.122;2023-10-31T08:58:28;12.40;83.90
1091;DHT22;534;48.704;9.122;2023-10-31T09:00:56;12.40;83.50
1091;DHT22;534;48.704;9.122;2023-10-31T09:03:23;12.50;84.40
1091;DHT22;534;48.704;9.122;2023-10-31T09:05:49;12.60;84.80
1091;DHT22;534;48.704;9.122;2023-10-31T09:08:16;12.60;84.10
1091;DHT22;534;48.704;9.122;2023-10-31T09:10:43;12.80;83.60
1091;DHT22;534;48.704;9.122;2023-10-31T09:13:12;12.70;83.50
1091;DHT22;534;48.704;9.122;2023-10-31T09:15:38;12.80;83.60
1091;DHT22;534;48.704;9.122;2023-10-31T09:18:07;12.80;83.70
1091;DHT22;534;48.704;9.122;2023-10-31T09:20:34;13.00;83.50
1091;DHT22;534;48.704;9.122;2023-10-31T09:23:01;13.20;83.30
1091;DHT22;534;48.704;9.122;2023-10-31T09:25:27;13.20;82.30
1091;DHT22;534;48.704;9.122;2023-10-31T09:27:55;12.90;82.10
1091;DHT22;534;48.704;9.122;2023-10-31T09:30:24;12.60;83.00
1091;DHT22;534;48.704;9.122;2023-10-31T09:32:51;12.60;83.20
1091;DHT22;534;48.704;9.122;2023-10-31T09:35:19;12.80;83.90
1091;DHT22;534;48.704;9.122;2023-10-31T09:37:45;12.90;82.80
1091;DHT22;534;48.704;9.122;2023-10-31T09:40:14;12.90;82.40
1091;DHT22;534;48.704;9.122;2023-10-31T09:42:41;12.90;82.30
1091;DHT22;534;48.704;9.122;2023-10-31T09:45:08;12.80;82.40
1091;DHT22;534;48.704;9.122;2023-10-31T09:47:35;12.70;82.70
1091;DHT22;534;48.704;9.122;2023-10-31T09:50:02;12.70;84.10
1091;DHT22;534;48.704;9.122;2023-10-31T09:52:30;12.80;84.10
1091;DHT22;534;48.704;9.122;2023-10-31T09:54:57;12.80;83.10
1091;DHT22;534;48.704;9.122;2023-10-31T09:57:25;12.90;84.70
1091;DHT22;534;48.704;9.122;2023-10-31T09:59:52;12.90;83.60
1091;DHT22;534;48.704;9.122;2023-10-31T10:02:19;13.10;83.00
1091;DHT22;534;48.704;9.122;2023-10-31T10:04:46;13.00;83.00
1091;DHT22;534;48.704;9.122;2023-10-31T10:07:15;12.70;82.90
1091;DHT22;534;48.704;9.122;2023-10-31T10:09:44;12.70;83.40
1091;DHT22;534;48.704;9.122;2023-10-31T10:12:12;12.80;84.20
1091;DHT22;534;48.704;9.122;2023-10-31T10:14:39;12.80;83.20
1091;DHT22;534;48.704;9.122;2023-10-31T10:17:14;12.90;82.30
1091;DHT22;534;48.704;9.122;2023-10-31T10:19:41;13.00;83.20
1091;DHT22;534;48.704;9.122;2023-10-31T10:22:08;13.20;83.10
1091;DHT22;534;48.704;9.122;2023-10-31T10:24:35;13.40;82.30
1091;DHT22;534;48.704;9.122;2023-10-31T10:27:06;13.50;81.50
1091;DHT22;534;48.704;9.122;2023-10-31T10:29:34;13.50;82.10
1091;DHT22;534;48.704;9.122;2023-10-31T10:32:01;13.50;81.80
1091;DHT22;534;48.704;9.122;2023-10-31T10:34:28;13.50;81.30
1091;DHT22;534;48.704;9.122;2023-10-31T10:36:55;13.50;81.30
1091;DHT22;534;48.704;9.122;2023-10-31T10:39:23;13.60;81.30
1091;DHT22;534;48.704;9.122;2023-10-31T10:41:52;13.50;81.40
1091;DHT22;534;48.704;9.122;2023-10-31T10:44:29;13.60;81.90
1091;DHT22;534;48.704;9.122;2023-10-31T10:46:58;13.60;80.90
1091;DHT22;534;48.704;9.122;2023-10-31T10:49:27;13.70;81.80
1091;DHT22;534;48.704;9.122;2023-10-31T10:51:58;13.80;80.90
1091;DHT22;534;48.704;9.122;2023-10-31T10:54:32;13.80;79.80
1091;DHT22;534;48.704;9.122;2023-10-31T10:57:08;13.70;81.20
1091;DHT22;534;48.704;9.122;2023-10-31T10:59:41;13.70;81.10
1091;DHT22;534;48.704;9.122;2023-10-31T11:02:08;13.70;80.90
1091;DHT22;534;48.704;9.122;2023-10-31T11:04:36;13.90;81.20
1091;DHT22;534;48.704;9.122;2023-10-31T11:07:04;14.10;80.10
1091;DHT22;534;48.704;9.122;2023-10-31T11:09:31;14.20;80.10
1091;DHT22;534;48.704;9.122;2023-10-31T11:11:58;14.30;78.20
1091;DHT22;534;48.704;9.122;2023-10-31T11:14:25;14.30;78.50
1091;DHT22;534;48.704;9.122;2023-10-31T11:16:57;14.20;80.50
1091;DHT22;534;48.704;9.122;2023-10-31T11:19:26;14.30;78.50
1091;DHT22;534;48.704;9.122;2023-10-31T11:21:54;14.30;77.50
1091;DHT22;534;48.704;9.122;2023-10-31T11:24:21;14.20;78.70
1091;DHT22;534;48.704;9.122;2023-10-31T11:26:53;14.20;79.10
1091;DHT22;534;48.704;9.122;2023-10-31T11:29:24;14.30;79.00
1091;DHT22;534;48.704;9.122;2023-10-31T11:31:51;14.40;78.50
1091;DHT22;534;48.704;9.122;2023-10-31T11:34:19;14.60;77.90
1091;DHT22;534;48.704;9.122;2023-10-31T11:36:46;14.70;77.40
1091;DHT22;534;48.704;9.122;2023-10-31T11:39:14;14.80;75.30
1091;DHT22;534;48.704;9.122;2023-10-31T11:41:48;14.60;75.20
1091;DHT22;534;48.704;9.122;2023-10-31T11:44:15;14.60;75.40
1091;DHT22;534;48.704;9.122;2023-10-31T11:46:42;14.40;75.10
1091;DHT22;534;48.704;9.122;2023-10-31T11:49:13;14.50;75.00
1091;DHT22;534;48.704;9.122;2023-10-31T11:51:44;14.30;75.30
1091;DHT22;534;48.704;9.122;2023-10-31T11:54:12;14.20;75.60
1091;DHT22;534;48.704;9.122;2023-10-31T11:56:39;14.30;77.50
1091;DHT22;534;48.704;9.122;2023-10-31T11:59:06;14.20;75.50
1091;DHT22;534;48.704;9.122;2023-10-31T12:01:33;14.20;76.20
1091;DHT22;534;48.704;9.122;2023-10-31T12:04:00;14.20;76.40
1091;DHT22;534;48.704;9.122;2023-10-31T12:06:28;14.10;74.70
1091;DHT22;534;48.704;9.122;2023-10-31T12:08:59;14.10;76.20
1091;DHT22;534;48.704;9.122;2023-10-31T12:11:26;14.10;76.80
1091;DHT22;534;48.704;9.122;2023-10-31T12:13:56;14.10;77.40
1091;DHT22;534;48.704;9.122;2023-10-31T12:16:24;14.10;76.90
1091;DHT22;534;48.704;9.122;2023-10-31T12:18:55;14.20;77.70
1091;DHT22;534;48.704;9.122;2023-10-31T12:21:35;14.10;77.00
1091;DHT22;534;48.704;9.122;2023-10-31T12:24:07;14.00;76.80
1091;DHT22;534;48.704;9.122;2023-10-31T12:26:34;14.10;78.20
1091;DHT22;534;48.704;9.122;2023-10-31T12:29:08;14.20;78.40
1091;DHT22;534;48.704;9.122;2023-10-31T12:31:39;14.20;77.70
1091;DHT22;534;48.704;9.122;2023-10-31T12:34:06;14.30;77.20
1091;DHT22;534;48.704;9.122;2023-10-31T12:36:33;14.30;77.30
1091;DHT22;534;48.704;9.122;2023-10-31T12:39:00;14.30;77.60
1091;DHT22;534;48.704;9.122;2023-10-31T12:41:29;14.30;77.60
1091;DHT22;534;48.704;9.122;2023-10-31T12:43:56;14.40;77.70
1091;DHT22;534;48.704;9.122;2023-10-31T12:46:27;14.50;78.10
1091;DHT22;534;48.704;9.122;2023-10-31T12:48:54;14.50;77.10
1091;DHT22;534;48.704;9.122;2023-10-31T12:51:21;14.60;77.30
1091;DHT22;534;48.704;9.122;2023-10-31T12:53:48;14.60;77.30
1091;DHT22;534;48.704;9.122;2023-10-31T12:56:41;14.70;77.60
1091;DHT22;534;48.704;9.122;2023-10-31T12:59:09;14.70;77.60
1091;DHT22;534;48.704;9.122;2023-10-31T13:01:42;14.60;79.00
1091;DHT22;534;48.704;9.122;2023-10-31T13:04:09;14.70;78.40
1091;DHT22;534;48.704;9.122;2023-10-31T13:06:37;14.50;77.80
1091;DHT22;534;48.704;9.122;2023-10-31T13:09:04;14.50;79.00
1091;DHT22;534;48.704;9.122;2023-10-31T13:11:40;14.30;80.40
1091;DHT22;534;48.704;9.122;2023-10-31T13:14:07;14.10;81.30
1091;DHT22;534;48.704;9.122;2023-10-31T13:16:34;14.10;82.40
1091;DHT22;534;48.704;9.122;2023-10-31T13:19:00;14.20;82.50
1091;DHT22;534;48.704;9.122;2023-10-31T13:21:27;14.30;82.60
1091;DHT22;534;48.704;9.122;2023-10-31T13:23:54;14.40;82.40
1091;DHT22;534;48.704;9.122;2023-10-31T13:26:20;14.50;82.20
1091;DHT22;534;48.704;9.122;2023-10-31T13:28:48;14.50;82.20
1091;DHT22;534;48.704;9.122;2023-10-31T13:31:15;14.60;81.90
1091;DHT22;534;48.704;9.122;2023-10-31T13:33:43;14.60;82.50
1091;DHT22;534;48.704;9.122;2023-10-31T13:36:10;14.50;82.00
1091;DHT22;534;48.704;9.122;2023-10-31T13:38:37;14.60;81.90
1091;DHT22;534;48.704;9.122;2023-10-31T13:41:04;14.60;81.80
1091;DHT22;534;48.704;9.122;2023-10-31T13:43:30;14.50;82.20
1091;DHT22;534;48.704;9.122;2023-10-31T13:45:58;14.40;81.70
1091;DHT22;534;48.704;9.122;2023-10-31T13:48:25;14.50;82.90
1091;DHT22;534;48.704;9.122;2023-10-31T13:50:52;14.70;81.80
1091;DHT22;534;48.704;9.122;2023-10-31T13:53:18;14.90;81.70
1091;DHT22;534;48.704;9.122;2023-10-31T13:55:45;15.20;81.60
1091;DHT22;534;48.704;9.122;2023-10-31T13:58:12;15.40;81.20
1091;DHT22;534;48.704;9.122;2023-10-31T14:00:39;15.30;79.80
1091;DHT22;534;48.704;9.122;2023-10-31T14:03:06;15.30;80.00
1091;DHT22;534;48.704;9.122;2023-10-31T14:05:33;15.10;78.30
1091;DHT22;534;48.704;9.122;2023-10-31T14:08:00;15.10;79.40
1091;DHT22;534;48.704;9.122;2023-10-31T14:10:27;15.30;80.30
1091;DHT22;534;48.704;9.122;2023-10-31T14:12:53;15.40;78.40
1091;DHT22;534;48.704;9.122;2023-10-31T14:15:20;15.30;78.00
1091;DHT22;534;48.704;9.122;2023-10-31T14:17:47;15.20;78.10
1091;DHT22;534;48.704;9.122;2023-10-31T14:20:16;15.00;78.20
1091;DHT22;534;48.704;9.122;2023-10-31T14:22:47;14.90;78.70
1091;DHT22;534;48.704;9.122;2023-10-31T14:25:14;14.80;79.20
1091;DHT22;534;48.704;9.122;2023-10-31T14:27:41;14.70;79.50
1091;DHT22;534;48.704;9.122;2023-10-31T14:30:09;14.70;79.70
1091;DHT22;534;48.704;9.122;2023-10-31T14:32:35;14.70;79.10
1091;DHT22;534;48.704;9.122;2023-10-31T14:35:02;14.60;78.50
1091;DHT22;534;48.704;9.122;2023-10-31T14:37:31;14.60;79.40
1091;DHT22;534;48.704;9.122;2023-10-31T14:39:57;14.60;78.90
1091;DHT22;534;48.704;9.122;2023-10-31T14:42:24;14.70;78.90
1091;DHT22;534;48.704;9.122;2023-10-31T14:44:51;14.80;79.30
1091;DHT22;534;48.704;9.122;2023-10-31T14:47:19;14.60;78.00
1091;DHT22;534;48.704;9.122;2023-10-31T14:49:45;14.60;79.40
1091;DHT22;534;48.704;9.122;2023-10-31T14:52:12;14.60;79.30
1091;DHT22;534;48.704;9.122;2023-10-31T14:54:40;14.60;78.60
1091;DHT22;534;48.704;9.122;2023-10-31T14:57:07;14.60;78.40
1091;DHT22;534;48.704;9.122;2023-10-31T14:59:34;14.50;79.10
1091;DHT22;534;48.704;9.122;2023-10-31T15:02:01;14.60;79.50
1091;DHT22;534;48.704;9.122;2023-10-31T15:04:27;14.50;79.90
1091;DHT22;534;48.704;9.122;2023-10-31T15:06:54;14.30;80.20
1091;DHT22;534;48.704;9.122;2023-10-31T15:09:20;14.10;79.20
1091;DHT22;534;48.704;9.122;2023-10-31T15:11:49;14.10;79.40
1091;DHT22;534;48.704;9.122;2023-10-31T15:14:15;13.90;78.90
1091;DHT22;534;48.704;9.122;2023-10-31T15:16:42;13.90;79.50
1091;DHT22;534;48.704;9.122;2023-10-31T15:19:09;13.90;79.70
1091;DHT22;534;48.704;9.122;2023-10-31T15:21:35;13.90;80.20
1091;DHT22;534;48.704;9.122;2023-10-31T15:24:02;13.90;80.80
1091;DHT22;534;48.704;9.122;2023-10-31T15:26:33;13.90;79.90
1091;DHT22;534;48.704;9.122;2023-10-31T15:29:01;13.90;80.00
1091;DHT22;534;48.704;9.122;2023-10-31T15:31:28;13.90;79.80
1091;DHT22;534;48.704;9.122;2023-10-31T15:33:54;13.90;79.80
1091;DHT22;534;48.704;9.122;2023-10-31T15:36:21;13.90;79.50
1091;DHT22;534;48.704;9.122;2023-10-31T15:38:48;13.90;79.80
1091;DHT22;534;48.704;9.122;2023-10-31T15:41:16;13.80;81.10
1091;DHT22;534;48.704;9.122;2023-10-31T15:43:44;13.80;81.10
1091;DHT22;534;48.704;9.122;2023-10-31T15:46:13;13.70;81.40
1091;DHT22;534;48.704;9.122;2023-10-31T15:48:39;13.60;82.40
1091;DHT22;534;48.704;9.122;2023-10-31T15:51:07;13.70;82.50
1091;DHT22;534;48.704;9.122;2023-10-31T15:53:34;13.70;82.30
1091;DHT22;534;48.704;9.122;2023-10-31T15:56:01;13.60;82.30
1091;DHT22;534;48.704;9.122;2023-10-31T15:58:34;13.60;82.20
1091;DHT22;534;48.704;9.122;2023-10-31T16:01:00;13.60;82.60
1091;DHT22;534;48.704;9.122;2023-10-31T16:03:31;13.60;83.00
1091;DHT22;534;48.704;9.122;2023-10-31T16:05:58;13.40;83.30
1091;DHT22;534;48.704;9.122;2023-10-31T16:08:24;13.40;83.70
1091;DHT22;534;48.704;9.122;2023-10-31T16:10:51;13.50;83.60
1091;DHT22;534;48.704;9.122;2023-10-31T16:13:18;13.60;83.60
1091;DHT22;534;48.704;9.122;2023-10-31T16:15:45;13.50;83.80
1091;DHT22;534;48.704;9.122;2023-10-31T16:18:13;13.40;84.30
1091;DHT22;534;48.704;9.122;2023-10-31T16:20:41;13.40;84.50
1091;DHT22;534;48.704;9.122;2023-10-31T16:23:09;13.40;84.80
1091;DHT22;534;48.704;9.122;2023-10-31T16:25:36;13.50;84.70
1091;DHT22;534;48.704;9.122;2023-10-31T16:28:03;13.50;84.60
1091;DHT22;534;48.704;9.122;2023-10-31T16:30:30;13.50;84.40
1091;DHT22;534;48.704;9.122;2023-10-31T16:32:58;13.60;84.60
1091;DHT22;534;48.704;9.122;2023-10-31T16:35:25;13.60;84.40
1091;DHT22;534;48.704;9.122;2023-10-31T16:37:53;13.60;84.00
1091;DHT22;534;48.704;9.122;2023-10-31T16:40:20;13.20;84.80
1091;DHT22;534;48.704;9.122;2023-10-31T16:42:49;13.20;85.20
1091;DHT22;534;48.704;9.122;2023-10-31T16:45:16;13.10;85.10
1091;DHT22;534;48.704;9.122;2023-10-31T16:47:44;13.00;84.70
1091;DHT22;534;48.704;9.122;2023-10-31T16:50:11;12.90;85.50
1091;DHT22;534;48.704;9.122;2023-10-31T16:52:37;12.70;86.10
1091;DHT22;534;48.704;9.122;2023-10-31T16:55:06;12.70;86.50
1091;DHT22;534;48.704;9.122;2023-10-31T16:57:33;12.50;87.20
1091;DHT22;534;48.704;9.122;2023-10-31T17:00:00;12.50;86.90
1091;DHT22;534;48.704;9.122;2023-10-31T17:02:27;12.30;87.00
1091;DHT22;534;48.704;9.122;2023-10-31T17:04:54;12.30;87.90
1091;DHT22;534;48.704;9.122;2023-10-31T17:07:22;12.40;87.40
1091;DHT22;534;48.704;9.122;2023-10-31T17:09:49;12.50;87.00
1091;DHT22;534;48.704;9.122;2023-10-31T17:12:17;12.50;87.20
1091;DHT22;534;48.704;9.122;2023-10-31T17:14:44;12.50;87.10
1091;DHT22;534;48.704;9.122;2023-10-31T17:17:11;12.50;87.20
1091;DHT22;534;48.704;9.122;2023-10-31T17:19:37;12.50;87.10
1091;DHT22;534;48.704;9.122;2023-10-31T17:22:04;12.50;86.90
1091;DHT22;534;48.704;9.122;2023-10-31T17:24:31;12.40;86.80
1091;DHT22;534;48.704;9.122;2023-10-31T17:26:57;12.30;87.50
1091;DHT22;534;48.704;9.122;2023-10-31T17:29:25;12.30;87.80
1091;DHT22;534;48.704;9.122;2023-10-31T17:31:52;12.40;87.20
1091;DHT22;534;48.704;9.122;2023-10-31T17:34:19;12.20;87.30
1091;DHT22;534;48.704;9.122;2023-10-31T17:36:46;12.10;87.60
1091;DHT22;534;48.704;9.122;2023-10-31T17:39:13;12.10;88.00
1091;DHT22;534;48.704;9.122;2023-10-31T17:41:40;12.20;88.00
1091;DHT22;534;48.704;9.122;2023-10-31T17:44:07;12.20;87.80
1091;DHT22;534;48.704;9.122;2023-10-31T17:46:35;12.10;87.50
1091;DHT22;534;48.704;9.122;2023-10-31T17:49:02;12.20;87.50
1091;DHT22;534;48.704;9.122;2023-10-31T17:51:28;12.10;87.40
1091;DHT22;534;48.704;9.122;2023-10-31T17:53:55;12.10;87.40
1091;DHT22;534;48.704;9.122;2023-10-31T17:56:21;12.10;87.70
1091;DHT22;534;48.704;9.122;2023-10-31T17:58:48;12.00;87.90
1091;DHT22;534;48.704;9.122;2023-10-31T18:01:15;12.00;88.10
1091;DHT22;534;48.704;9.122;2023-10-31T18:03:43;12.10;88.10
1091;DHT22;534;48.704;9.122;2023-10-31T18:06:10;12.10;87.60
1091;DHT22;534;48.704;9.122;2023-10-31T18:08:36;12.10;87.30
1091;DHT22;534;48.704;9.122;2023-10-31T18:11:03;12.00;87.30
1091;DHT22;534;48.704;9.122;2023-10-31T18:13:31;11.90;87.60
1091;DHT22;534;48.704;9.122;2023-10-31T18:15:57;11.80;88.20
1091;DHT22;534;48.704;9.122;2023-10-31T18:18:24;11.80;88.40
1091;DHT22;534;48.704;9.122;2023-10-31T18:20:52;12.00;88.40
1091;DHT22;534;48.704;9.122;2023-10-31T18:23:20;12.00;88.20
1091;DHT22;534;48.704;9.122;2023-10-31T18:25:47;12.10;88.10
1091;DHT22;534;48.704;9.122;2023-10-31T18:28:17;12.10;88.00
1091;DHT22;534;48.704;9.122;2023-10-31T18:30:43;12.10;88.20
1091;DHT22;534;48.704;9.122;2023-10-31T18:33:11;12.20;88.00
1091;DHT22;534;48.704;9.122;2023-10-31T18:35:38;12.30;87.30
1091;DHT22;534;48.704;9.122;2023-10-31T18:38:06;12.30;87.80
1091;DHT22;534;48.704;9.122;2023-10-31T18:40:34;12.30;87.60
1091;DHT22;534;48.704;9.122;2023-10-31T18:43:01;12.30;87.40
1091;DHT22;534;48.704;9.122;2023-10-31T18:45:28;12.20;87.80
1091;DHT22;534;48.704;9.122;2023-10-31T18:47:55;12.30;88.20
1091;DHT22;534;48.704;9.122;2023-10-31T18:50:21;12.20;88.50
1091;DHT22;534;48.704;9.122;2023-10-31T18:52:48;12.20;88.50
1091;DHT22;534;48.704;9.122;2023-10-31T18:55:16;12.30;88.50
1091;DHT22;534;48.704;9.122;2023-10-31T18:57:44;12.20;88.30
1091;DHT22;534;48.704;9.122;2023-10-31T19:00:12;12.10;88.70
1091;DHT22;534;48.704;9.122;2023-10-31T19:02:39;12.10;88.70
1091;DHT22;534;48.704;9.122;2023-10-31T19:05:06;12.10;88.90
1091;DHT22;534;48.704;9.122;2023-10-31T19:07:33;12.20;88.90
1091;DHT22;534;48.704;9.122;2023-10-31T19:10:00;12.10;89.10
1091;DHT22;534;48.704;9.122;2023-10-31T19:12:28;11.90;89.50
1091;DHT22;534;48.704;9.122;2023-10-31T19:14:55;11.90;89.60
1091;DHT22;534;48.704;9.122;2023-10-31T19:17:22;11.80;89.90
1091;DHT22;534;48.704;9.122;2023-10-31T19:19:48;11.80;90.30
1091;DHT22;534;48.704;9.122;2023-10-31T19:22:15;11.80;90.60
1091;DHT22;534;48.704;9.122;2023-10-31T19:24:43;11.90;90.50
1091;DHT22;534;48.704;9.122;2023-10-31T19:27:10;12.00;90.30
1091;DHT22;534;48.704;9.122;2023-10-31T19:29:38;12.10;89.90
1091;DHT22;534;48.704;9.122;2023-10-31T19:32:06;12.10;89.70
1091;DHT22;534;48.704;9.122;2023-10-31T19:34:33;12.10;90.10
1091;DHT22;534;48.704;9.122;2023-10-31T19:37:00;12.20;89.90
1091;DHT22;534;48.704;9.122;2023-10-31T19:39:27;12.10;89.60
1091;DHT22;534;48.704;9.122;2023-10-31T19:41:54;12.20;89.80
1091;DHT22;534;48.704;9.122;2023-10-31T19:44:21;12.10;89.70
1091;DHT22;534;48.704;9.122;2023-10-31T19:46:48;12.10;89.70
1091;DHT22;534;48.704;9.122;2023-10-31T19:49:16;12.10;89.80
1091;DHT22;534;48.704;9.122;2023-10-31T19:51:43;12.10;89.80
1091;DHT22;534;48.704;9.122;2023-10-31T19:54:10;12.00;89.60
1091;DHT22;534;48.704;9.122;2023-10-31T19:56:37;12.00;90.00
1091;DHT22;534;48.704;9.122;2023-10-31T19:59:04;11.90;90.30
1091;DHT22;534;48.704;9.122;2023-10-31T20:01:30;12.00;90.40
1091;DHT22;534;48.704;9.122;2023-10-31T20:03:58;11.90;90.30
1091;DHT22;534;48.704;9.122;2023-10-31T20:06:25;11.80;90.30
1091;DHT22;534;48.704;9.122;2023-10-31T20:08:52;11.80;90.60
1091;DHT22;534;48.704;9.122;2023-10-31T20:11:19;11.80;90.50
1091;DHT22;534;48.704;9.122;2023-10-31T20:13:46;11.90;90.00
1091;DHT22;534;48.704;9.122;2023-10-31T20:16:13;11.70;90.40
1091;DHT22;534;48.704;9.122;2023-10-31T20:18:39;11.70;90.40
1091;DHT22;534;48.704;9.122;2023-10-31T20:21:07;11.70;90.60
1091;DHT22;534;48.704;9.122;2023-10-31T20:23:34;11.80;90.50
1091;DHT22;534;48.704;9.122;2023-10-31T20:26:01;11.70;90.10
1091;DHT22;534;48.704;9.122;2023-10-31T20:28:27;11.70;90.20
1091;DHT22;534;48.704;9.122;2023-10-31T20:30:54;11.70;90.00
1091;DHT22;534;48.704;9.122;2023-10-31T20:33:21;11.80;90.00
1091;DHT22;534;48.704;9.122;2023-10-31T20:35:48;11.70;89.70
1091;DHT22;534;48.704;9.122;2023-10-31T20:38:16;11.60;89.90
1091;DHT22;534;48.704;9.122;2023-10-31T20:40:42;11.60;89.90
1091;DHT22;534;48.704;9.122;2023-10-31T20:43:09;11.70;89.90
1091;DHT22;534;48.704;9.122;2023-10-31T20:45:36;11.70;89.70
1091;DHT22;534;48.704;9.122;2023-10-31T20:48:04;11.80;90.00
1091;DHT22;534;48.704;9.122;2023-10-31T20:50:31;11.90;89.30
1091;DHT22;534;48.704;9.122;2023-10-31T20:52:57;11.80;88.80
1091;DHT22;534;48.704;9.122;2023-10-31T20:55:27;11.70;89.30
1091;DHT22;534;48.704;9.122;2023-10-31T20:57:54;11.70;89.40
1091;DHT22;534;48.704;9.122;2023-10-31T21:00:21;11.70;89.30
1091;DHT22;534;48.704;9.122;2023-10-31T21:02:49;11.70;89.20
1091;DHT22;534;48.704;9.122;2023-10-31T21:05:16;11.60;89.60
1091;DHT22;534;48.704;9.122;2023-10-31T21:07:43;11.70;89.40
1091;DHT22;534;48.704;9.122;2023-10-31T21:10:09;11.70;88.60
1091;DHT22;534;48.704;9.122;2023-10-31T21:12:38;11.70;89.00
1091;DHT22;534;48.704;9.122;2023-10-31T21:15:05;11.50;89.70
1091;DHT22;534;48.704;9.122;2023-10-31T21:17:32;11.60;89.40